createdAt,value
2023-06-21T20:37:07.226Z,8.50
2023-06-21T20:39:36.887Z,9.00
2023-06-21T20:42:06.639Z,8.50
2023-06-21T20:44:35.616Z,8.80
2023-06-21T20:47:07.045Z,8.20
2023-06-21T20:49:36.310Z,8.80
2023-06-21T20:52:06.065Z,8.60
2023-06-21T20:54:34.831Z,8.70
2023-06-21T20:57:04.453Z,8.50
2023-06-21T20:59:33.475Z,8.10
2023-06-21T21:02:02.766Z,9.00
2023-06-21T21:04:31.888Z,8.30
2023-06-21T21:07:00.952Z,8.80
2023-06-21T21:09:29.932Z,8.90
2023-06-21T21:11:59.127Z,9.00
2023-06-21T21:14:28.016Z,9.20
2023-06-21T21:16:56.961Z,8.10
2023-06-21T21:19:25.744Z,8.90
2023-06-21T21:21:55.001Z,10.30
2023-06-21T21:24:23.829Z,9.50
2023-06-21T21:26:52.622Z,9.50
2023-06-21T21:29:21.295Z,9.50
2023-06-21T21:31:55.019Z,8.70
2023-06-21T21:34:24.879Z,9.50
2023-06-21T21:36:53.935Z,9.80
2023-06-21T21:39:22.694Z,9.80
2023-06-21T21:41:53.090Z,10.20
2023-06-21T21:44:22.322Z,10.30
2023-06-21T21:46:51.848Z,10.90
2023-06-21T21:49:20.687Z,9.90
2023-06-21T21:51:49.679Z,10.10
2023-06-21T21:54:21.647Z,9.50
2023-06-21T21:56:50.846Z,9.30
2023-06-21T21:59:19.732Z,9.00
2023-06-21T22:01:50.070Z,9.70
2023-06-21T22:04:19.142Z,9.20
2023-06-21T22:06:48.356Z,11.30
2023-06-21T22:09:17.408Z,10.70
2023-06-21T22:11:46.635Z,10.40
2023-06-21T22:14:16.013Z,10.20
2023-06-21T22:16:47.326Z,11.90
2023-06-21T22:19:17.554Z,12.20
2023-06-21T22:21:53.831Z,11.40
2023-06-21T22:24:24.180Z,11.20
2023-06-21T22:26:53.222Z,10.70
2023-06-21T22:29:25.097Z,10.10
2023-06-21T22:31:53.934Z,9.60
2023-06-21T22:34:24.249Z,9.80
2023-06-21T22:36:53.302Z,9.90
2023-06-21T22:39:22.560Z,12.00
2023-06-21T22:41:54.409Z,12.10
2023-06-21T22:44:23.225Z,10.60
2023-06-21T22:46:52.130Z,11.20
2023-06-21T22:49:24.246Z,10.60
2023-06-21T22:51:53.007Z,11.10
2023-06-21T22:54:21.876Z,10.80
2023-06-21T22:56:50.692Z,11.60
2023-06-21T22:59:19.565Z,11.40
2023-06-21T23:01:49.773Z,10.30
2023-06-21T23:04:18.729Z,11.50
2023-06-21T23:06:47.691Z,10.80
2023-06-21T23:09:16.467Z,11.50
2023-06-21T23:11:45.184Z,11.20
2023-06-21T23:14:19.701Z,11.30
2023-06-21T23:16:48.756Z,11.30
2023-06-21T23:19:20.114Z,10.80
2023-06-21T23:21:49.311Z,11.40
2023-06-21T23:24:18.092Z,11.80
2023-06-21T23:26:49.928Z,11.50
2023-06-21T23:29:22.311Z,13.40
2023-06-21T23:31:51.043Z,11.90
2023-06-21T23:34:21.475Z,11.80
2023-06-21T23:36:52.071Z,12.00
2023-06-21T23:39:21.133Z,10.00
2023-06-21T23:41:49.840Z,10.50
2023-06-21T23:44:18.600Z,9.90
2023-06-21T23:46:47.309Z,9.80
2023-06-21T23:49:16.030Z,11.30
2023-06-21T23:51:44.949Z,10.20
2023-06-21T23:54:13.757Z,10.80
2023-06-21T23:56:42.580Z,12.10
2023-06-21T23:59:11.306Z,12.40
